Time;durP1;ratioP1;P1;durP2;ratioP2;P2;SDS_P1;SDS_P2;PMS_P1;PMS_P2;Temp;Humidity;BMP_temperature;BMP_pressure;BME280_temperature;BME280_humidity;BME280_pressure;Samples;Min_cycle;Max_cycle;Signal;HPM_P1;HPM_P2
2023/01/16 00:01:55;;;;;;;0.60;0.60;;;;;;;0.65;100.00;95424.44;5035524;28;20219;-74
2023/01/16 00:04:22;;;;;;;0.80;0.80;;;;;;;0.60;100.00;95413.56;5042740;28;20204;-75
2023/01/16 00:06:49;;;;;;;0.67;0.67;;;;;;;0.59;100.00;95401.31;5036496;28;20214;-74
2023/01/16 00:09:17;;;;;;;0.60;0.60;;;;;;;0.69;100.00;95403.63;5033590;28;20263;-75
2023/01/16 00:11:46;;;;;;;0.60;0.50;;;;;;;0.61;100.00;95396.59;5042684;28;20305;-75
2023/01/16 00:14:13;;;;;;;0.53;0.53;;;;;;;0.61;100.00;95393.13;5040706;28;20258;-75
2023/01/16 00:16:40;;;;;;;1.10;0.90;;;;;;;0.61;100.00;95385.16;5043573;28;20208;-75
2023/01/16 00:19:07;;;;;;;0.60;0.60;;;;;;;0.58;100.00;95375.75;5045988;28;20256;-75
2023/01/16 00:21:34;;;;;;;1.23;0.90;;;;;;;0.49;100.00;95376.91;5048119;28;20228;-74
2023/01/16 00:24:01;;;;;;;2.07;1.50;;;;;;;0.41;100.00;95368.25;5039152;28;20233;-74
2023/01/16 00:26:29;;;;;;;1.10;0.97;;;;;;;0.40;100.00;95358.66;5038805;28;20221;-75
2023/01/16 00:28:57;;;;;;;1.10;1.00;;;;;;;0.40;100.00;95351.50;5045823;28;20221;-74
2023/01/16 00:31:25;;;;;;;1.23;1.00;;;;;;;0.43;100.00;95344.97;5039607;28;20202;-75
2023/01/16 00:33:53;;;;;;;0.80;0.80;;;;;;;0.44;100.00;95338.66;5033394;28;20227;-74
2023/01/16 00:36:20;;;;;;;1.20;1.10;;;;;;;0.40;100.00;95332.09;5038141;28;20197;-74
2023/01/16 00:38:47;;;;;;;2.23;1.40;;;;;;;0.41;100.00;95328.44;5044590;28;20198;-75
2023/01/16 00:41:14;;;;;;;2.07;1.23;;;;;;;0.44;100.00;95328.84;5029771;28;20203;-75
2023/01/16 00:43:41;;;;;;;1.77;1.20;;;;;;;0.41;100.00;95333.75;5038044;28;20208;-75
2023/01/16 00:46:10;;;;;;;1.47;1.10;;;;;;;0.42;100.00;95322.94;5052715;28;20213;-75
2023/01/16 00:48:37;;;;;;;1.17;1.07;;;;;;;0.41;100.00;95321.28;5037201;28;20268;-75
2023/01/16 00:51:04;;;;;;;1.00;0.90;;;;;;;0.33;100.00;95316.13;5041110;28;20198;-74
2023/01/16 00:53:31;;;;;;;2.27;1.23;;;;;;;0.23;100.00;95310.31;5035769;28;20302;-74
2023/01/16 00:55:58;;;;;;;1.67;1.03;;;;;;;0.19;100.00;95307.19;5039902;28;20253;-74
2023/01/16 00:58:25;;;;;;;1.03;0.93;;;;;;;0.12;100.00;95309.00;5037677;28;20206;-74
2023/01/16 01:00:52;;;;;;;0.70;0.70;;;;;;;0.07;100.00;95303.44;5038335;28;20217;-74
2023/01/16 01:03:21;;;;;;;0.80;0.80;;;;;;;0.08;100.00;95293.66;5039656;28;20212;-74
2023/01/16 01:05:48;;;;;;;0.83;0.80;;;;;;;0.16;100.00;95281.06;5043675;28;20206;-75
2023/01/16 01:08:15;;;;;;;0.80;0.80;;;;;;;0.24;100.00;95274.78;5035155;28;20206;-75
2023/01/16 01:10:42;;;;;;;0.70;0.70;;;;;;;0.29;100.00;95269.72;5042141;28;20229;-75
2023/01/16 01:13:09;;;;;;;0.53;0.50;;;;;;;0.36;100.00;95267.91;5041727;28;20267;-74
2023/01/16 01:15:36;;;;;;;0.47;0.47;;;;;;;0.35;100.00;95255.66;5043462;28;20214;-75
2023/01/16 01:18:04;;;;;;;0.50;0.50;;;;;;;0.35;100.00;95250.34;5035190;28;20244;-75
2023/01/16 01:20:32;;;;;;;0.93;0.53;;;;;;;0.24;100.00;95254.38;5035663;28;20197;-75
2023/01/16 01:22:59;;;;;;;0.50;0.50;;;;;;;0.23;100.00;95241.28;5046629;28;20254;-75
2023/01/16 01:25:27;;;;;;;0.50;0.50;;;;;;;0.29;100.00;95232.53;5038941;28;20264;-75
2023/01/16 01:27:53;;;;;;;0.73;0.67;;;;;;;0.26;100.00;95222.31;5042420;28;20238;-75
2023/01/16 01:30:21;;;;;;;0.60;0.60;;;;;;;0.28;100.00;95222.94;5038625;28;20253;-74
2023/01/16 01:32:48;;;;;;;0.63;0.63;;;;;;;0.26;100.00;95219.66;5048598;28;20204;-77
2023/01/16 01:35:17;;;;;;;0.50;0.50;;;;;;;0.26;100.00;95217.81;5038812;28;20226;-77
2023/01/16 01:37:45;;;;;;;0.40;0.40;;;;;;;0.23;100.00;95209.44;5042212;28;20210;-77
2023/01/16 01:40:12;;;;;;;0.40;0.40;;;;;;;0.28;100.00;95212.31;5041136;28;20848;-77
2023/01/16 01:42:43;;;;;;;0.40;0.40;;;;;;;0.30;100.00;95207.63;5035151;28;20218;-77
2023/01/16 01:45:15;;;;;;;0.47;0.47;;;;;;;0.45;100.00;95204.84;5044208;28;20198;-75
2023/01/16 01:47:51;;;;;;;0.97;0.60;;;;;;;0.45;100.00;95189.75;5034492;28;20289;-74
2023/01/16 01:50:27;;;;;;;0.70;0.60;;;;;;;0.40;100.00;95194.84;5040127;28;20259;-75
2023/01/16 01:53:00;;;;;;;0.90;0.60;;;;;;;0.31;100.00;95185.38;5038162;28;20209;-74
2023/01/16 01:55:27;;;;;;;0.60;0.60;;;;;;;0.26;100.00;95172.69;5057930;28;20259;-76
2023/01/16 01:58:00;;;;;;;0.60;0.60;;;;;;;0.26;100.00;95161.25;5044629;28;20198;-76
2023/01/16 02:00:28;;;;;;;1.10;0.77;;;;;;;0.25;100.00;95146.34;5034370;28;20442;-77
2023/01/16 02:03:01;;;;;;;1.10;1.00;;;;;;;0.19;100.00;95139.16;5031062;28;20232;-76
2023/01/16 02:05:31;;;;;;;0.50;0.50;;;;;;;0.08;100.00;95131.75;5038733;28;20292;-76
2023/01/16 02:08:02;;;;;;;0.60;0.60;;;;;;;-0.02;100.00;95121.50;5037414;28;20310;-76
2023/01/16 02:10:36;;;;;;;0.50;0.50;;;;;;;-0.09;100.00;95108.19;5034875;28;20259;-76
2023/01/16 02:13:03;;;;;;;0.50;0.50;;;;;;;-0.16;100.00;95104.66;5038219;28;20241;-76
2023/01/16 02:15:31;;;;;;;0.50;0.50;;;;;;;-0.12;100.00;95099.78;5042373;28;20222;-76
2023/01/16 02:20:53;;;;;;;2.30;0.60;;;;;;;-0.05;100.00;95077.59;5036628;28;20209;-76
2023/01/16 02:24:12;;;;;;;0.83;0.73;;;;;;;-0.12;100.00;95065.31;5045422;28;20210;-76
2023/01/16 02:26:56;;;;;;;0.60;0.60;;;;;;;-0.18;100.00;95051.00;4982888;28;20213;-76
2023/01/16 02:29:46;;;;;;;1.03;0.67;;;;;;;-0.14;100.00;95049.56;5041980;28;20285;-76
2023/01/16 02:32:32;;;;;;;0.60;0.60;;;;;;;-0.19;100.00;95052.00;5036871;28;20299;-77
2023/01/16 02:35:22;;;;;;;0.70;0.70;;;;;;;-0.19;100.00;95044.06;5035499;28;20507;-76
2023/01/16 02:37:55;;;;;;;0.50;0.50;;;;;;;-0.15;100.00;95032.03;5034138;28;20225;-76
2023/01/16 02:40:39;;;;;;;0.60;0.60;;;;;;;-0.09;100.00;95025.94;5038711;28;20264;-76
2023/01/16 02:43:19;;;;;;;0.40;0.40;;;;;;;-0.06;100.00;95019.41;5026475;28;20206;-77
2023/01/16 02:45:53;;;;;;;0.40;0.40;;;;;;;0.02;100.00;95015.75;5034179;28;20244;-76
2023/01/16 02:48:31;;;;;;;0.70;0.70;;;;;;;0.03;100.00;95014.75;5036151;28;20213;-76
2023/01/16 02:51:05;;;;;;;0.60;0.60;;;;;;;-0.04;100.00;95006.78;5044377;28;20202;-76
2023/01/16 02:53:39;;;;;;;0.87;0.80;;;;;;;-0.09;100.00;95002.06;5042312;28;20209;-76
2023/01/16 02:56:11;;;;;;;0.70;0.70;;;;;;;-0.10;100.00;94995.13;5029748;28;20308;-76
2023/01/16 02:58:47;;;;;;;0.73;0.70;;;;;;;-0.03;100.00;94989.84;5041953;28;20440;-76
2023/01/16 03:01:14;;;;;;;0.60;0.60;;;;;;;-0.10;100.00;94971.25;5030476;28;20257;-76
2023/01/16 03:03:47;;;;;;;0.60;0.60;;;;;;;-0.11;100.00;94963.47;5042905;28;20200;-76
2023/01/16 03:06:43;;;;;;;0.67;0.67;;;;;;;-0.10;100.00;94973.91;5044867;28;20242;-77
2023/01/16 03:09:31;;;;;;;0.80;0.80;;;;;;;-0.15;100.00;94960.38;5048848;28;20202;-76
2023/01/16 03:12:17;;;;;;;0.70;0.57;;;;;;;-0.12;100.00;94940.63;5042774;28;20221;-77
2023/01/16 03:14:57;;;;;;;0.67;0.60;;;;;;;-0.19;100.00;94931.81;5038949;28;20218;-76
2023/01/16 03:17:40;;;;;;;0.83;0.70;;;;;;;-0.28;100.00;94931.19;5039221;28;20224;-76
2023/01/16 03:20:25;;;;;;;1.10;1.00;;;;;;;-0.31;100.00;94922.78;5035650;28;20218;-77
2023/01/16 03:22:58;;;;;;;0.70;0.70;;;;;;;-0.32;100.00;94911.34;5031607;28;20299;-76
2023/01/16 03:25:30;;;;;;;0.40;0.40;;;;;;;-0.27;100.00;94900.16;5040085;28;20230;-77
2023/01/16 03:28:06;;;;;;;0.50;0.50;;;;;;;-0.41;100.00;94883.38;5045177;28;20205;-76
2023/01/16 03:30:47;;;;;;;0.60;0.50;;;;;;;-0.46;100.00;94867.25;5040689;28;20221;-76
2023/01/16 03:33:23;;;;;;;0.50;0.50;;;;;;;-0.54;100.00;94862.94;5039795;28;20205;-76
2023/01/16 03:35:57;;;;;;;1.30;1.20;;;;;;;-0.56;100.00;94845.59;5042119;28;20271;-76
2023/01/16 03:38:27;;;;;;;0.57;0.50;;;;;;;-0.57;100.00;94836.00;5040545;28;20289;-76
2023/01/16 03:41:01;;;;;;;0.60;0.60;;;;;;;-0.60;100.00;94823.16;5040328;28;20224;-76
2023/01/16 03:43:33;;;;;;;0.50;0.50;;;;;;;-0.61;100.00;94824.19;5040312;28;20207;-76
2023/01/16 03:46:05;;;;;;;0.40;0.40;;;;;;;-0.52;100.00;94825.63;5043830;28;20206;-77
2023/01/16 03:48:38;;;;;;;0.50;0.50;;;;;;;-0.47;100.00;94807.28;5040699;28;20230;-76
2023/01/16 03:51:09;;;;;;;0.87;0.50;;;;;;;-0.42;100.00;94807.50;5038003;28;20210;-76
2023/01/16 03:53:40;;;;;;;0.50;0.50;;;;;;;-0.40;100.00;94785.06;5031774;28;20218;-76
2023/01/16 03:56:13;;;;;;;0.60;0.60;;;;;;;-0.37;100.00;94781.22;5041540;28;20225;-76
2023/01/16 03:58:44;;;;;;;0.60;0.60;;;;;;;-0.47;100.00;94775.47;5031363;28;20220;-76
2023/01/16 04:01:19;;;;;;;0.60;0.60;;;;;;;-0.50;100.00;94767.91;5050804;28;20218;-77
2023/01/16 04:03:54;;;;;;;0.50;0.50;;;;;;;-0.49;100.00;94745.69;5043239;28;20205;-76
2023/01/16 04:06:31;;;;;;;3.87;0.50;;;;;;;-0.44;100.00;94744.09;5042614;28;20202;-76
2023/01/16 04:09:00;;;;;;;1.40;0.53;;;;;;;-0.48;100.00;94729.59;5038291;28;20217;-75
2023/01/16 04:11:27;;;;;;;0.40;0.40;;;;;;;-0.54;100.00;94719.78;5041141;28;20226;-75
2023/01/16 04:14:01;;;;;;;0.47;0.47;;;;;;;-0.55;100.00;94717.34;5039331;28;20236;-75
2023/01/16 04:16:30;;;;;;;0.60;0.60;;;;;;;-0.55;100.00;94704.09;5037874;28;20260;-76
2023/01/16 04:18:58;;;;;;;0.97;0.50;;;;;;;-0.56;100.00;94702.44;5034622;28;20198;-76
2023/01/16 04:21:30;;;;;;;0.60;0.60;;;;;;;-0.56;100.00;94695.31;5039757;28;20300;-77
2023/01/16 04:23:58;;;;;;;1.63;1.30;;;;;;;-0.48;100.00;94681.03;5037923;28;20203;-77
2023/01/16 04:26:26;;;;;;;0.80;0.80;;;;;;;-0.51;100.00;94692.88;5043161;28;20202;-76
2023/01/16 04:28:54;;;;;;;0.50;0.50;;;;;;;-0.53;100.00;94678.19;5042712;28;20303;-76
2023/01/16 04:31:23;;;;;;;0.77;0.77;;;;;;;-0.50;100.00;94672.47;5041045;28;20198;-76
2023/01/16 04:33:50;;;;;;;8.73;2.70;;;;;;;-0.49;100.00;94660.84;5031640;28;20210;-76
2023/01/16 04:36:18;;;;;;;1.77;0.93;;;;;;;-0.51;100.00;94655.75;5045587;28;20275;-76
2023/01/16 04:38:46;;;;;;;0.70;0.70;;;;;;;-0.50;100.00;94644.13;5041182;28;20648;-76
2023/01/16 04:41:35;;;;;;;6.13;3.80;;;;;;;-0.55;100.00;94637.81;5039866;28;20210;-76
2023/01/16 04:44:00;;;;;;;0.83;0.83;;;;;;;-0.56;100.00;94625.56;5042134;28;20209;-76
2023/01/16 04:46:27;;;;;;;0.93;0.87;;;;;;;-0.61;100.00;94610.31;5039715;28;20249;-76
2023/01/16 04:48:55;;;;;;;1.00;0.90;;;;;;;-0.66;100.00;94604.78;5043958;28;20211;-76
2023/01/16 04:51:22;;;;;;;2.40;0.80;;;;;;;-0.61;100.00;94606.84;5044690;28;20221;-76
2023/01/16 04:53:51;;;;;;;1.60;0.77;;;;;;;-0.63;100.00;94599.06;5041054;28;20206;-76
2023/01/16 04:56:18;;;;;;;1.70;1.10;;;;;;;-0.62;100.00;94579.50;5036824;28;20225;-76
2023/01/16 04:58:45;;;;;;;0.80;0.80;;;;;;;-0.61;100.00;94564.44;5038682;28;20302;-76
2023/01/16 05:01:12;;;;;;;0.80;0.80;;;;;;;-0.66;100.00;94548.31;5042283;28;20218;-76
2023/01/16 05:03:39;;;;;;;0.80;0.70;;;;;;;-0.71;100.00;94538.34;5037432;28;20202;-76
2023/01/16 05:06:06;;;;;;;0.83;0.73;;;;;;;-0.55;100.00;94534.44;5044136;28;20218;-76
2023/01/16 05:08:33;;;;;;;0.50;0.50;;;;;;;-0.58;100.00;94533.00;5039191;28;20230;-76
2023/01/16 05:11:02;;;;;;;0.60;0.60;;;;;;;-0.61;100.00;94512.22;5033819;28;20226;-76
2023/01/16 05:13:29;;;;;;;1.10;1.00;;;;;;;-0.63;100.00;94497.56;5057338;28;20260;-76
2023/01/16 05:15:56;;;;;;;0.70;0.70;;;;;;;-0.66;100.00;94484.69;5047978;28;20222;-76
2023/01/16 05:18:24;;;;;;;1.03;0.70;;;;;;;-0.63;100.00;94481.66;5039860;28;20232;-76
2023/01/16 05:20:51;;;;;;;0.70;0.70;;;;;;;-0.56;100.00;94471.84;5032962;28;20263;-76
2023/01/16 05:23:18;;;;;;;1.00;1.00;;;;;;;-0.56;100.00;94462.06;5037015;28;20198;-76
2023/01/16 05:25:45;;;;;;;0.90;0.90;;;;;;;-0.46;100.00;94453.66;5041323;28;20309;-76
2023/01/16 05:28:14;;;;;;;1.03;0.90;;;;;;;-0.34;100.00;94444.03;5040238;28;20283;-76
2023/01/16 05:30:41;;;;;;;0.63;0.63;;;;;;;-0.12;100.00;94437.44;5038463;28;20261;-76
2023/01/16 05:33:08;;;;;;;1.97;1.30;;;;;;;0.06;100.00;94431.44;5033754;28;20202;-76
2023/01/16 05:35:35;;;;;;;1.43;1.20;;;;;;;0.07;100.00;94421.63;5039098;28;20295;-76
2023/01/16 05:38:02;;;;;;;2.20;1.50;;;;;;;0.10;100.00;94402.59;5054899;28;20214;-76
2023/01/16 05:40:29;;;;;;;4.73;1.97;;;;;;;0.03;100.00;94392.03;5037967;28;20273;-76
2023/01/16 05:42:56;;;;;;;4.50;2.43;;;;;;;-0.08;100.00;94395.34;5041181;28;20252;-74
2023/01/16 05:45:24;;;;;;;4.53;3.30;;;;;;;-0.24;100.00;94388.72;5034728;28;20228;-74
2023/01/16 05:47:51;;;;;;;2.63;1.93;;;;;;;-0.32;100.00;94373.03;5034407;28;20211;-74
2023/01/16 05:50:18;;;;;;;2.00;1.77;;;;;;;-0.34;100.00;94350.44;5035263;28;20202;-75
2023/01/16 05:52:49;;;;;;;1.50;1.33;;;;;;;-0.40;100.00;94342.28;5038767;28;20194;-75
2023/01/16 05:55:16;;;;;;;1.67;1.57;;;;;;;-0.44;100.00;94354.34;5038983;28;20223;-75
2023/01/16 05:57:43;;;;;;;1.60;1.50;;;;;;;-0.42;100.00;94319.66;5042335;28;20198;-75
2023/01/16 06:00:11;;;;;;;2.07;1.60;;;;;;;-0.59;100.00;94332.59;5037370;28;20336;-75
2023/01/16 06:02:39;;;;;;;2.20;1.70;;;;;;;-0.69;100.00;94324.28;5038017;28;20848;-75
2023/01/16 06:05:08;;;;;;;3.37;2.90;;;;;;;-0.71;100.00;94320.22;5034481;28;20207;-76
2023/01/16 06:07:35;;;;;;;6.03;4.83;;;;;;;-0.68;100.00;94315.31;5043094;28;21170;-74
2023/01/16 06:10:02;;;;;;;6.20;3.50;;;;;;;-0.68;100.00;94301.25;5031662;28;20266;-73
2023/01/16 06:12:31;;;;;;;3.83;2.70;;;;;;;-0.76;100.00;94289.84;5041273;28;20198;-73
2023/01/16 06:14:58;;;;;;;3.93;2.80;;;;;;;-0.77;100.00;94276.84;5040591;28;20213;-73
2023/01/16 06:17:25;;;;;;;2.00;1.80;;;;;;;-0.86;100.00;94255.06;5036934;28;20207;-74
2023/01/16 06:19:54;;;;;;;1.67;1.57;;;;;;;-0.86;100.00;94255.06;5034141;28;20201;-73
2023/01/16 06:22:21;;;;;;;3.20;1.73;;;;;;;-0.80;100.00;94243.63;5038138;28;20209;-73
2023/01/16 06:24:48;;;;;;;5.33;2.70;;;;;;;-0.79;100.00;94239.97;5039676;28;20234;-73
2023/01/16 06:27:15;;;;;;;3.80;2.80;;;;;;;-0.76;100.00;94234.22;5038064;28;20206;-72
2023/01/16 06:29:43;;;;;;;4.03;2.53;;;;;;;-0.76;100.00;94213.00;5035691;28;20221;-74
2023/01/16 06:32:09;;;;;;;4.43;3.47;;;;;;;-0.80;100.00;94219.78;5034847;28;20209;-74
2023/01/16 06:34:36;;;;;;;11.00;6.50;;;;;;;-0.72;100.00;94202.00;5036625;28;20206;-74
2023/01/16 06:37:05;;;;;;;6.77;4.00;;;;;;;-0.51;100.00;94194.50;5036297;28;20223;-74
2023/01/16 06:39:32;;;;;;;8.80;6.40;;;;;;;-0.61;100.00;94191.53;5052950;28;20206;-74
2023/01/16 06:41:59;;;;;;;10.00;7.40;;;;;;;-0.61;100.00;94188.06;5041496;28;20198;-74
2023/01/16 06:44:26;;;;;;;5.40;2.57;;;;;;;-0.68;100.00;94179.38;5034425;28;20270;-74
2023/01/16 06:46:53;;;;;;;5.57;4.00;;;;;;;-0.77;100.00;94169.00;5040739;28;20201;-74
2023/01/16 06:49:20;;;;;;;8.63;7.23;;;;;;;-0.72;100.00;94159.59;5043954;28;20333;-74
2023/01/16 06:51:47;;;;;;;5.90;4.60;;;;;;;-0.73;100.00;94145.53;5042888;28;20202;-74
2023/01/16 06:54:15;;;;;;;3.83;3.17;;;;;;;-0.69;100.00;94130.03;5038426;28;20237;-74
2023/01/16 06:56:42;;;;;;;3.00;2.27;;;;;;;0.03;100.00;94125.94;5041025;28;20230;-76
2023/01/16 06:59:09;;;;;;;0.70;0.70;;;;;;;1.36;92.35;94111.56;5043048;28;20213;-76
2023/01/16 07:01:37;;;;;;;2.00;1.30;;;;;;;2.00;88.09;94093.13;5039181;28;20293;-76
2023/01/16 07:04:06;;;;;;;0.87;0.77;;;;;;;2.74;78.22;94075.47;5037185;28;20196;-76
2023/01/16 07:06:34;;;;;;;0.70;0.70;;;;;;;3.70;66.90;94080.66;5032345;28;20270;-76
2023/01/16 07:09:01;;;;;;;0.57;0.57;;;;;;;4.38;61.17;94078.69;5039547;28;20218;-76
2023/01/16 07:11:29;;;;;;;1.33;0.80;;;;;;;4.67;59.23;94056.09;5046912;28;20226;-76
2023/01/16 07:24:53;;;;;;;0.60;0.60;;;;;;;5.48;50.29;94050.75;5046536;28;20291;-76
2023/01/16 07:27:21;;;;;;;0.70;0.70;;;;;;;5.66;50.31;94051.19;5046291;28;20199;-76
2023/01/16 07:29:48;;;;;;;0.50;0.50;;;;;;;5.08;60.20;94043.97;5043624;28;20293;-76
2023/01/16 07:32:15;;;;;;;0.60;0.60;;;;;;;5.14;55.52;94047.50;5032362;28;20194;-76
2023/01/16 07:34:42;;;;;;;0.60;0.60;;;;;;;5.32;50.22;94015.84;5048003;28;20293;-76
2023/01/16 07:37:10;;;;;;;0.60;0.60;;;;;;;5.60;52.69;94030.00;5046868;28;20226;-76
2023/01/16 07:39:37;;;;;;;0.60;0.50;;;;;;;5.64;51.88;94039.94;5040454;28;20301;-76
2023/01/16 07:42:05;;;;;;;0.60;0.60;;;;;;;5.75;45.20;94032.78;5043600;28;20198;-76
2023/01/16 07:44:34;;;;;;;0.57;0.57;;;;;;;6.06;45.68;94037.31;5037309;28;20210;-76
2023/01/16 07:47:01;;;;;;;0.70;0.70;;;;;;;5.54;55.19;94037.16;5047837;28;20229;-76
2023/01/16 07:49:28;;;;;;;0.47;0.47;;;;;;;5.88;43.84;94032.38;5037180;28;20229;-76
2023/01/16 07:51:55;;;;;;;0.80;0.77;;;;;;;5.70;52.97;94027.38;5037586;28;20209;-76
2023/01/16 07:54:23;;;;;;;2.53;0.70;;;;;;;5.30;55.64;94011.81;5045718;28;20217;-76
2023/01/16 07:56:50;;;;;;;0.60;0.60;;;;;;;5.58;50.96;94013.38;5045116;28;20253;-76
2023/01/16 07:59:17;;;;;;;0.57;0.57;;;;;;;5.59;52.27;94002.44;5045307;28;20279;-76
2023/01/16 08:01:46;;;;;;;1.20;0.60;;;;;;;5.80;49.00;93987.28;5044800;28;20244;-76
2023/01/16 08:04:14;;;;;;;0.50;0.50;;;;;;;6.22;42.91;93967.72;5039400;28;20242;-76
2023/01/16 08:06:44;;;;;;;0.50;0.50;;;;;;;6.61;39.95;93949.41;5042745;28;20264;-76
2023/01/16 08:09:11;;;;;;;2.00;0.53;;;;;;;6.73;43.60;93974.09;5040814;28;20202;-76
2023/01/16 08:11:39;;;;;;;1.00;0.90;;;;;;;6.40;44.61;93951.19;5037381;28;20223;-76
2023/01/16 08:14:07;;;;;;;0.70;0.70;;;;;;;6.61;41.03;93950.22;5036928;28;20203;-76
2023/01/16 08:16:35;;;;;;;0.70;0.70;;;;;;;6.70;39.62;93943.28;5039332;28;20226;-76
2023/01/16 08:19:03;;;;;;;0.70;0.70;;;;;;;6.82;39.11;93933.09;5038333;28;20207;-76
2023/01/16 08:21:31;;;;;;;0.50;0.50;;;;;;;6.95;38.17;93917.56;5041250;28;20227;-76
2023/01/16 08:23:58;;;;;;;0.70;0.70;;;;;;;7.09;37.45;93914.06;5044727;28;20218;-76
2023/01/16 08:26:25;;;;;;;0.60;0.60;;;;;;;7.23;36.38;93898.22;5039603;28;20218;-76
2023/01/16 08:28:52;;;;;;;0.50;0.50;;;;;;;7.30;37.46;93908.72;5036157;28;20270;-76
2023/01/16 08:31:20;;;;;;;0.50;0.50;;;;;;;7.28;36.52;93909.00;5045733;28;20207;-76
2023/01/16 08:33:49;;;;;;;0.50;0.50;;;;;;;7.43;35.68;93892.06;5054296;28;20307;-76
2023/01/16 08:36:20;;;;;;;0.87;0.50;;;;;;;7.57;34.88;93880.47;5052004;28;20242;-76
2023/01/16 08:38:47;;;;;;;0.60;0.60;;;;;;;7.56;34.71;93875.41;5039083;28;20203;-76
2023/01/16 08:52:18;;;;;;;0.60;0.60;;;;;;;8.04;32.20;93881.97;5046324;28;20249;-76
2023/01/16 08:54:45;;;;;;;0.60;0.60;;;;;;;8.03;33.25;93871.50;5047959;28;20202;-76
2023/01/16 08:57:11;;;;;;;2.43;1.37;;;;;;;8.09;31.85;93868.50;5044215;28;20219;-76
2023/01/16 08:59:38;;;;;;;0.80;0.80;;;;;;;8.13;31.99;93895.66;5047032;28;20206;-76
2023/01/16 09:02:11;;;;;;;0.60;0.60;;;;;;;8.15;32.27;93888.13;5047727;28;20269;-76
2023/01/16 09:04:38;;;;;;;0.60;0.60;;;;;;;8.18;31.53;93877.63;5046620;28;20198;-76
2023/01/16 09:07:08;;;;;;;0.73;0.73;;;;;;;8.24;31.70;93899.94;5044172;28;20268;-76
2023/01/16 09:09:37;;;;;;;1.17;0.70;;;;;;;8.27;32.36;93897.47;5047321;28;20210;-76
2023/01/16 09:14:46;;;;;;;0.60;0.60;;;;;;;8.35;31.44;93878.13;5014598;28;20225;-76
2023/01/16 09:17:13;;;;;;;0.60;0.60;;;;;;;8.37;31.34;93885.09;5034014;28;20214;-76
2023/01/16 09:19:40;;;;;;;0.50;0.50;;;;;;;8.39;30.85;93894.50;5044394;28;20230;-76
2023/01/16 09:22:07;;;;;;;0.70;0.70;;;;;;;8.41;31.93;93883.47;5042603;28;20206;-76
2023/01/16 09:24:34;;;;;;;0.53;0.53;;;;;;;8.43;30.76;93908.19;5043495;28;20236;-75
2023/01/16 09:27:03;;;;;;;0.60;0.60;;;;;;;8.58;30.24;93905.44;5047691;28;20191;-76
2023/01/16 09:29:31;;;;;;;0.40;0.40;;;;;;;8.56;30.10;93899.53;5045981;28;20203;-76
2023/01/16 09:31:58;;;;;;;0.60;0.60;;;;;;;8.55;30.65;93904.09;5045808;28;20194;-76
2023/01/16 09:34:25;;;;;;;1.20;1.00;;;;;;;8.56;30.66;93897.66;5047037;28;20210;-75
2023/01/16 09:36:52;;;;;;;0.70;0.70;;;;;;;8.47;30.58;93901.19;5036735;28;20222;-76
2023/01/16 09:39:19;;;;;;;0.73;0.73;;;;;;;8.54;30.43;93896.31;5047284;28;20209;-74
2023/01/16 09:44:50;;;;;;;0.77;0.77;;;;;;;8.71;30.78;93910.19;5037000;28;20214;-74
2023/01/16 09:47:21;;;;;;;4.77;0.90;;;;;;;8.72;29.50;93918.00;5046627;28;20199;-74
2023/01/16 09:49:53;;;;;;;1.30;0.70;;;;;;;8.73;29.29;93879.25;5045608;28;20206;-74
2023/01/16 10:00:52;;;;;;;0.77;0.60;;;;;;;8.83;28.43;93873.00;5045081;28;20260;-76
2023/01/16 10:03:19;;;;;;;0.60;0.60;;;;;;;8.75;29.29;93872.81;5047974;28;20212;-76
2023/01/16 10:05:54;;;;;;;0.80;0.80;;;;;;;8.71;29.80;93876.03;5044858;28;20240;-76
2023/01/16 10:08:30;;;;;;;0.70;0.70;;;;;;;8.74;28.95;93890.81;5049146;28;20226;-76
2023/01/16 10:11:07;;;;;;;2.00;0.80;;;;;;;8.69;29.15;93906.97;5045289;28;20226;-76
2023/01/16 10:14:02;;;;;;;0.60;0.60;;;;;;;8.71;28.96;93902.13;5044555;28;20206;-76
2023/01/16 10:16:44;;;;;;;0.80;0.70;;;;;;;8.70;28.50;93868.25;5050945;28;20214;-76
2023/01/16 10:19:23;;;;;;;0.70;0.70;;;;;;;8.71;28.87;93883.31;5050600;28;20224;-76
2023/01/16 10:22:12;;;;;;;0.73;0.73;;;;;;;8.81;28.07;93877.88;5048692;28;20206;-76
2023/01/16 10:24:50;;;;;;;0.70;0.70;;;;;;;8.80;29.02;93872.75;5048575;28;20287;-76
2023/01/16 10:27:22;;;;;;;0.53;0.53;;;;;;;8.74;29.16;93866.63;5049112;28;20268;-76
2023/01/16 10:29:54;;;;;;;0.60;0.60;;;;;;;8.81;28.51;93867.09;5048463;28;20203;-76
2023/01/16 10:32:27;;;;;;;0.60;0.60;;;;;;;8.95;28.73;93854.63;5050097;28;20202;-76
2023/01/16 10:35:03;;;;;;;0.90;0.90;;;;;;;8.94;29.15;93861.06;5049912;28;20213;-76
2023/01/16 10:37:31;;;;;;;1.90;0.80;;;;;;;8.98;29.48;93864.81;5050491;28;20225;-76
2023/01/16 10:40:01;;;;;;;0.70;0.70;;;;;;;9.00;29.09;93867.25;5040786;28;20200;-76
2023/01/16 10:50:57;;;;;;;0.70;0.70;;;;;;;9.04;28.94;93809.06;5048212;28;20207;-74
2023/01/16 10:53:24;;;;;;;0.57;0.57;;;;;;;8.91;28.66;93826.69;5037262;28;20206;-74
2023/01/16 10:55:53;;;;;;;0.50;0.50;;;;;;;8.93;29.13;93821.78;5054961;28;20237;-74
2023/01/16 10:58:27;;;;;;;0.67;0.67;;;;;;;8.85;29.67;93833.16;5047351;28;20218;-75
2023/01/16 11:01:00;;;;;;;0.60;0.60;;;;;;;8.85;29.95;93822.41;5049174;28;20205;-76
2023/01/16 11:03:34;;;;;;;0.70;0.70;;;;;;;8.85;29.74;93827.78;5046180;28;20209;-75
2023/01/16 11:06:14;;;;;;;1.00;0.83;;;;;;;8.79;30.07;93828.91;5047396;28;20213;-76
2023/01/16 11:08:43;;;;;;;0.60;0.60;;;;;;;8.76;29.68;93834.88;5045853;28;20202;-75
2023/01/16 11:18:27;;;;;;;0.90;0.80;;;;;;;8.69;30.46;93834.34;5047294;28;20222;-75
2023/01/16 11:19:43;;;;;;;2.20;0.70;;;;;;;8.52;31.69;93826.66;5050095;28;20202;-75
2023/01/16 11:22:24;;;;;;;1.20;1.00;;;;;;;8.44;32.33;93832.63;5047079;28;20205;-76
2023/01/16 11:24:55;;;;;;;0.60;0.60;;;;;;;8.47;31.48;93832.09;5049433;28;20234;-75
2023/01/16 11:27:24;;;;;;;1.37;1.20;;;;;;;8.44;31.60;93816.50;5047146;28;20236;-76
2023/01/16 11:29:54;;;;;;;0.87;0.77;;;;;;;8.46;32.51;93829.66;5048762;28;20214;-76
2023/01/16 11:32:24;;;;;;;0.70;0.70;;;;;;;8.42;32.87;93828.63;5048800;28;20211;-76
2023/01/16 11:34:56;;;;;;;1.60;0.70;;;;;;;8.33;32.87;93820.34;5041162;28;20206;-76
2023/01/16 11:37:27;;;;;;;0.83;0.77;;;;;;;8.25;32.31;93824.38;5047351;28;20230;-75
2023/01/16 11:39:58;;;;;;;1.40;0.63;;;;;;;8.31;32.40;93799.13;5043325;28;20209;-76
2023/01/16 11:48:02;;;;;;;1.33;0.70;;;;;;;8.23;33.74;93788.91;5041827;28;20199;-75
2023/01/16 11:50:33;;;;;;;0.80;0.80;;;;;;;8.24;33.49;93789.72;5048518;28;20206;-76
2023/01/16 11:53:00;;;;;;;0.70;0.70;;;;;;;8.26;33.25;93795.59;5052052;28;20194;-76
2023/01/16 11:55:37;;;;;;;2.37;0.90;;;;;;;8.26;33.47;93817.09;5047247;28;20284;-76
2023/01/16 11:58:08;;;;;;;0.87;0.80;;;;;;;8.26;33.43;93799.09;5048668;28;20218;-76
2023/01/16 12:00:50;;;;;;;0.73;0.73;;;;;;;8.18;33.82;93764.75;5043284;28;20209;-76
2023/01/16 12:03:45;;;;;;;0.80;0.80;;;;;;;8.19;33.64;93777.09;5048034;28;20205;-76
2023/01/16 12:06:27;;;;;;;0.60;0.60;;;;;;;8.18;34.30;93772.81;5032463;28;20214;-75
2023/01/16 12:09:08;;;;;;;0.70;0.70;;;;;;;8.14;34.68;93774.44;5040512;28;20217;-76
2023/01/16 12:11:51;;;;;;;0.80;0.80;;;;;;;8.20;34.38;93786.78;5041926;28;20321;-76
2023/01/16 12:14:25;;;;;;;0.83;0.80;;;;;;;8.20;35.24;93767.97;5048604;28;20278;-76
2023/01/16 12:17:04;;;;;;;0.80;0.80;;;;;;;8.25;33.91;93764.44;5051718;28;20226;-74
2023/01/16 12:20:10;;;;;;;1.70;0.70;;;;;;;8.25;33.61;93745.63;5050232;28;20213;-74
2023/01/16 12:22:54;;;;;;;0.70;0.70;;;;;;;8.28;33.82;93742.38;5021750;28;20271;-74
2023/01/16 12:25:28;;;;;;;1.80;0.80;;;;;;;8.32;33.38;93712.00;5042573;28;20245;-74
2023/01/16 12:28:06;;;;;;;1.10;0.80;;;;;;;8.30;33.90;93719.50;5046049;28;20202;-74
2023/01/16 12:34:13;;;;;;;1.30;1.10;;;;;;;8.30;34.04;93714.13;5038974;28;20206;-74
2023/01/16 12:36:54;;;;;;;0.93;0.87;;;;;;;8.41;33.41;93696.09;5037235;28;20237;-74
2023/01/16 12:39:35;;;;;;;1.20;0.70;;;;;;;8.42;33.34;93699.56;5046238;28;20202;-74
2023/01/16 12:45:07;;;;;;;0.70;0.70;;;;;;;8.37;34.38;93660.06;5046645;28;20340;-74
2023/01/16 12:47:48;;;;;;;0.90;0.70;;;;;;;8.28;34.33;93686.72;5047872;28;20191;-74
2023/01/16 12:50:27;;;;;;;0.60;0.60;;;;;;;8.29;34.05;93666.03;5046932;28;20190;-74
2023/01/16 12:53:09;;;;;;;1.23;0.73;;;;;;;8.28;33.77;93667.91;5045684;28;20219;-74
2023/01/16 12:55:49;;;;;;;1.37;0.70;;;;;;;8.31;34.42;93667.38;5046231;28;20206;-74
2023/01/16 12:58:19;;;;;;;1.43;1.10;;;;;;;8.31;34.87;93639.69;5045033;28;20267;-74